createdAt,value
2023-03-06T00:01:19.870Z,100766.81
2023-03-06T00:03:24.481Z,100758.91
2023-03-06T00:05:28.691Z,100751.97
2023-03-06T00:07:32.237Z,100751.03
2023-03-06T00:09:35.984Z,100744.94
2023-03-06T00:11:39.552Z,100751.09
2023-03-06T00:13:43.281Z,100745.09
2023-03-06T00:15:48.932Z,100738.09
2023-03-06T00:17:53.154Z,100732.78
2023-03-06T00:19:57.033Z,100737.19
2023-03-06T00:22:00.525Z,100738.03
2023-03-06T00:24:04.163Z,100730.22
2023-03-06T00:26:09.079Z,100718.84
2023-03-06T00:28:15.952Z,100721.41
2023-03-06T00:30:22.404Z,100723.25
2023-03-06T00:32:28.917Z,100717.22
2023-03-06T00:34:32.618Z,100717.22
2023-03-06T00:36:36.110Z,100724.22
2023-03-06T00:38:39.632Z,100713.72
2023-03-06T00:40:43.126Z,100709.41
2023-03-06T00:42:47.087Z,100712.03
2023-03-06T00:44:50.637Z,100710.25
2023-03-06T00:46:54.265Z,100704.19
2023-03-06T00:48:59.314Z,100702.50
2023-03-06T00:51:03.137Z,100706.88
2023-03-06T00:53:06.655Z,100694.63
2023-03-06T00:55:11.722Z,100696.28
2023-03-06T00:57:14.998Z,100688.41
2023-03-06T00:59:18.704Z,100685.00
2023-03-06T01:01:22.356Z,100689.44
2023-03-06T01:03:27.616Z,100677.34
2023-03-06T01:05:35.758Z,100684.44
2023-03-06T01:07:39.209Z,100683.59
2023-03-06T01:09:43.009Z,100678.34
2023-03-06T01:11:46.548Z,100677.34
2023-03-06T01:13:50.314Z,100683.44
2023-03-06T01:15:54.352Z,100674.72
2023-03-06T01:17:58.313Z,100674.66
2023-03-06T01:20:03.424Z,100673.69
2023-03-06T01:22:08.242Z,100672.94
2023-03-06T01:24:11.704Z,100671.16
2023-03-06T01:26:15.707Z,100665.97
2023-03-06T01:28:19.195Z,100662.56
2023-03-06T01:30:23.054Z,100659.16
2023-03-06T01:32:26.952Z,100655.59
2023-03-06T01:34:30.591Z,100660.00
2023-03-06T01:36:34.449Z,100656.44
2023-03-06T01:38:41.002Z,100651.19
2023-03-06T01:40:44.314Z,100655.59
2023-03-06T01:42:50.631Z,100655.53
2023-03-06T01:45:02.649Z,100652.06
2023-03-06T01:47:06.492Z,100651.19
2023-03-06T01:49:16.681Z,100640.66
2023-03-06T01:51:20.602Z,100639.75
2023-03-06T01:53:24.268Z,100637.94
2023-03-06T01:55:35.060Z,100630.94
2023-03-06T01:57:42.467Z,100624.03
2023-03-06T01:59:49.121Z,100629.38
2023-03-06T02:01:53.120Z,100614.53
2023-03-06T02:03:57.460Z,100621.50
2023-03-06T02:06:01.156Z,100615.38
2023-03-06T02:08:05.443Z,100608.28
2023-03-06T02:10:10.537Z,100611.81
2023-03-06T02:12:19.402Z,100605.72
2023-03-06T02:14:23.490Z,100605.78
2023-03-06T02:16:30.581Z,100604.84
2023-03-06T02:18:35.443Z,100597.91
2023-03-06T02:20:44.963Z,100596.13
2023-03-06T02:22:55.517Z,100597.91
2023-03-06T02:25:05.632Z,100596.03
2023-03-06T02:27:14.531Z,100602.22
2023-03-06T02:29:25.628Z,100590.09
2023-03-06T02:31:32.191Z,100585.69
2023-03-06T02:33:36.032Z,100584.75
2023-03-06T02:35:42.009Z,100581.19
2023-03-06T02:37:47.029Z,100574.16
2023-03-06T02:40:02.032Z,100579.44
2023-03-06T02:42:06.040Z,100568.03
2023-03-06T02:44:10.828Z,100566.34
2023-03-06T02:46:14.146Z,100563.81
2023-03-06T02:48:19.096Z,100558.56
2023-03-06T02:50:22.276Z,100559.53
2023-03-06T02:52:25.685Z,100558.69
2023-03-06T02:54:29.028Z,100554.28
2023-03-06T02:56:32.317Z,100556.91
2023-03-06T02:58:35.632Z,100555.28
2023-03-06T03:00:40.657Z,100556.13
2023-03-06T03:02:46.412Z,100552.72
2023-03-06T03:04:49.679Z,100554.41
2023-03-06T03:06:54.095Z,100546.53
2023-03-06T03:08:57.465Z,100555.28
2023-03-06T03:11:02.014Z,100543.91
2023-03-06T03:13:11.867Z,100541.28
2023-03-06T03:15:15.745Z,100535.97
2023-03-06T03:17:20.915Z,100537.72
2023-03-06T03:19:24.178Z,100529.00
2023-03-06T03:21:27.760Z,100533.38
2023-03-06T03:23:31.990Z,100524.66
2023-03-06T03:25:35.279Z,100522.88
2023-03-06T03:27:38.602Z,100514.13
2023-03-06T03:29:42.812Z,100512.44
2023-03-06T03:31:46.045Z,100514.22
2023-03-06T03:33:50.796Z,100502.91
2023-03-06T03:35:58.376Z,100505.53
2023-03-06T03:38:02.783Z,100497.66
2023-03-06T03:40:08.053Z,100492.47
2023-03-06T03:42:11.337Z,100492.56
2023-03-06T03:44:15.054Z,100501.31
2023-03-06T03:46:19.087Z,100492.72
2023-03-06T03:48:22.575Z,100493.63
2023-03-06T03:50:27.873Z,100487.53
2023-03-06T03:52:31.064Z,100484.03
2023-03-06T03:54:34.496Z,100486.53
2023-03-06T03:56:37.796Z,100485.75
2023-03-06T03:58:46.251Z,100476.94
2023-03-06T04:00:49.643Z,100476.94
2023-03-06T04:02:52.990Z,100476.09
2023-03-06T04:05:05.675Z,100474.31
2023-03-06T04:07:11.119Z,100472.59
2023-03-06T04:09:15.628Z,100468.22
2023-03-06T04:11:19.511Z,100477.78
2023-03-06T04:13:23.544Z,100468.22
2023-03-06T04:15:27.608Z,100463.81
2023-03-06T04:17:34.137Z,100462.09
2023-03-06T04:19:38.481Z,100468.06
2023-03-06T04:21:41.861Z,100465.34
2023-03-06T04:23:47.039Z,100460.09
2023-03-06T04:25:51.354Z,100453.13
2023-03-06T04:27:55.261Z,100461.09
2023-03-06T04:29:58.815Z,100453.13
2023-03-06T04:32:02.619Z,100455.84
2023-03-06T04:34:06.330Z,100453.13
2023-03-06T04:36:18.117Z,100449.75
2023-03-06T04:38:21.620Z,100446.16
2023-03-06T04:40:29.495Z,100442.63
2023-03-06T04:42:32.997Z,100447.03
2023-03-06T04:44:36.755Z,100446.16
2023-03-06T04:46:40.049Z,100444.31
2023-03-06T04:48:43.595Z,100439.06
2023-03-06T04:50:47.133Z,100438.22
2023-03-06T04:52:50.774Z,100434.66
2023-03-06T04:54:54.287Z,100426.69
2023-03-06T04:56:58.981Z,100427.63
2023-03-06T04:59:03.320Z,100426.69
2023-03-06T05:01:07.252Z,100422.38
2023-03-06T05:03:12.513Z,100425.94
2023-03-06T05:05:16.424Z,100420.75
2023-03-06T05:07:19.885Z,100418.22
2023-03-06T05:09:23.202Z,100413.03
2023-03-06T05:11:26.739Z,100422.69
2023-03-06T05:13:31.826Z,100420.03
2023-03-06T05:15:35.132Z,100421.84
2023-03-06T05:17:38.827Z,100413.06
2023-03-06T05:19:42.140Z,100415.78
2023-03-06T05:21:45.599Z,100415.88
2023-03-06T05:23:49.250Z,100412.47
2023-03-06T05:25:52.892Z,100411.63
2023-03-06T05:27:56.246Z,100413.31
2023-03-06T05:30:00.976Z,100407.22
2023-03-06T05:32:04.326Z,100407.22
2023-03-06T05:34:07.858Z,100406.34
2023-03-06T05:36:11.453Z,100409.06
2023-03-06T05:38:14.815Z,100408.97
2023-03-06T05:40:19.298Z,100408.16
2023-03-06T05:42:22.603Z,100408.16
2023-03-06T05:44:26.024Z,100408.16
2023-03-06T05:46:31.605Z,100402.03
2023-03-06T05:48:35.437Z,100410.78
2023-03-06T05:50:38.971Z,100400.34
2023-03-06T05:52:42.460Z,100402.09
2023-03-06T05:54:45.816Z,100406.59
2023-03-06T05:56:49.517Z,100406.69
2023-03-06T05:58:53.179Z,100410.97
2023-03-06T06:00:56.481Z,100403.97
2023-03-06T06:03:03.304Z,100397.94
2023-03-06T06:05:07.260Z,100401.50
2023-03-06T06:07:15.642Z,100403.25
2023-03-06T06:09:19.228Z,100392.81
2023-03-06T06:11:22.582Z,100390.28
2023-03-06T06:13:25.877Z,100394.63
2023-03-06T06:15:29.144Z,100389.44
2023-03-06T06:17:32.986Z,100386.03
2023-03-06T06:19:37.578Z,100380.00
2023-03-06T06:21:40.854Z,100380.06
2023-03-06T06:23:44.606Z,100378.38
2023-03-06T06:25:47.940Z,100372.25
2023-03-06T06:27:51.611Z,100368.88
2023-03-06T06:29:55.046Z,100360.06
2023-03-06T06:31:59.081Z,100367.16
2023-03-06T06:34:03.704Z,100358.53
2023-03-06T06:36:16.930Z,100355.13
2023-03-06T06:38:20.709Z,100351.66
2023-03-06T06:40:24.529Z,100350.03
2023-03-06T06:42:36.291Z,100349.22
2023-03-06T06:44:41.936Z,100354.56
2023-03-06T06:47:21.320Z,100354.66
2023-03-06T06:49:12.268Z,100350.31
2023-03-06T06:51:18.383Z,100347.75
2023-03-06T06:53:22.174Z,100350.47
2023-03-06T06:55:26.078Z,100346.13
2023-03-06T06:57:30.770Z,100341.78
2023-03-06T06:59:34.282Z,100342.75
2023-03-06T07:01:37.915Z,100332.25
2023-03-06T07:03:43.379Z,100334.88
2023-03-06T07:05:46.978Z,100337.41
2023-03-06T07:07:54.143Z,100330.38
2023-03-06T07:09:57.960Z,100321.56
2023-03-06T07:12:01.722Z,100329.47
2023-03-06T07:14:05.509Z,100330.28
2023-03-06T07:16:09.726Z,100332.84
2023-03-06T07:18:13.548Z,100326.75
2023-03-06T07:20:17.325Z,100334.47
2023-03-06T07:22:20.987Z,100324.75
2023-03-06T07:24:25.949Z,100341.19
2023-03-06T07:26:32.772Z,100336.81
2023-03-06T07:28:51.604Z,100335.00
2023-03-06T07:30:56.321Z,100323.59
2023-03-06T07:33:01.157Z,100330.47
2023-03-06T07:35:19.398Z,100325.97
2023-03-06T07:37:23.902Z,100325.94
2023-03-06T07:39:30.270Z,100321.34
2023-03-06T07:41:33.960Z,100315.94
2023-03-06T07:43:38.033Z,100314.94
2023-03-06T07:45:43.892Z,100309.59
2023-03-06T07:47:47.870Z,100319.88
2023-03-06T07:49:51.761Z,100308.44
2023-03-06T07:51:55.260Z,100311.09
2023-03-06T07:53:58.821Z,100315.31
2023-03-06T07:56:08.754Z,100306.56
2023-03-06T07:58:13.227Z,100308.28
2023-03-06T08:00:17.764Z,100308.28
2023-03-06T08:02:21.590Z,100303.03
2023-03-06T08:04:25.785Z,100304.75
2023-03-06T08:06:29.723Z,100301.16
2023-03-06T08:08:34.625Z,100295.91
2023-03-06T08:10:39.019Z,100294.91
2023-03-06T08:12:44.314Z,100294.06
2023-03-06T08:14:47.629Z,100299.31
2023-03-06T08:16:51.506Z,100302.88
2023-03-06T08:18:57.611Z,100295.16
2023-03-06T08:21:06.782Z,100298.69
2023-03-06T08:23:11.010Z,100292.53
2023-03-06T08:25:14.915Z,100295.91
2023-03-06T08:27:18.615Z,100288.81
2023-03-06T08:29:23.816Z,100283.56
2023-03-06T08:31:29.697Z,100290.50
2023-03-06T08:33:33.500Z,100279.00
2023-03-06T08:35:38.634Z,100281.38
2023-03-06T08:37:41.955Z,100278.50
2023-03-06T08:39:45.604Z,100274.75
2023-03-06T08:41:49.299Z,100273.59
2023-03-06T08:43:53.961Z,100273.44
2023-03-06T08:46:01.741Z,100271.41
2023-03-06T08:48:05.322Z,100271.09
2023-03-06T08:50:09.349Z,100269.06
2023-03-06T08:52:12.927Z,100273.13
2023-03-06T08:54:16.782Z,100280.09
2023-03-06T08:56:23.134Z,100274.06
2023-03-06T08:58:26.723Z,100278.31
2023-03-06T09:00:30.325Z,100279.00
2023-03-06T09:02:36.279Z,100278.91
2023-03-06T09:04:39.963Z,100276.03
2023-03-06T09:06:45.461Z,100266.03
2023-03-06T09:08:49.099Z,100264.00
2023-03-06T09:10:52.740Z,100265.56
2023-03-06T09:12:56.494Z,100259.94
2023-03-06T09:15:00.353Z,100263.25
2023-03-06T09:17:03.894Z,100266.56
2023-03-06T09:19:09.057Z,100259.34
2023-03-06T09:21:12.455Z,100260.19
2023-03-06T09:23:18.382Z,100258.50
2023-03-06T09:25:23.482Z,100260.19
2023-03-06T09:27:28.432Z,100259.09
2023-03-06T09:29:31.771Z,100255.50
2023-03-06T09:31:35.545Z,100262.66
2023-03-06T09:33:39.146Z,100258.31
2023-03-06T09:35:49.816Z,100259.94
2023-03-06T09:37:53.401Z,100260.78
2023-03-06T09:39:57.877Z,100257.38
2023-03-06T09:42:01.400Z,100260.78
2023-03-06T09:44:08.927Z,100261.53
2023-03-06T09:46:22.296Z,100258.72
2023-03-06T09:48:37.652Z,100258.41
2023-03-06T09:50:47.381Z,100249.38
2023-03-06T09:53:04.708Z,100245.88
2023-03-06T09:55:13.243Z,100240.72
2023-03-06T09:57:24.162Z,100245.84
2023-03-06T09:59:28.972Z,100249.38
2023-03-06T10:01:36.830Z,100240.72
2023-03-06T10:03:49.539Z,100235.63
2023-03-06T10:06:02.412Z,100233.19
2023-03-06T10:08:17.660Z,100241.19
2023-03-06T10:10:24.174Z,100233.28
2023-03-06T10:12:29.603Z,100238.44
2023-03-06T10:14:39.197Z,100238.53
2023-03-06T10:16:42.901Z,100228.06
2023-03-06T10:18:47.252Z,100234.28
2023-03-06T10:21:10.320Z,100231.81
2023-03-06T10:23:44.011Z,100230.06
2023-03-06T10:25:55.920Z,100229.19
2023-03-06T10:28:04.703Z,100228.34
2023-03-06T10:30:23.019Z,100232.78
2023-03-06T10:32:39.525Z,100227.59
2023-03-06T10:34:51.367Z,100232.00
2023-03-06T10:36:56.162Z,100232.88
2023-03-06T10:39:01.181Z,100223.91
2023-03-06T10:41:09.526Z,100221.13
2023-03-06T10:43:15.470Z,100221.88
2023-03-06T10:45:19.500Z,100211.53
2023-03-06T10:47:30.430Z,100214.16
2023-03-06T10:49:35.887Z,100215.09
2023-03-06T10:51:39.431Z,100211.53
2023-03-06T10:53:53.314Z,100217.53
2023-03-06T10:55:58.665Z,100221.97
2023-03-06T10:58:20.756Z,100214.16
2023-03-06T11:00:33.116Z,100218.50
2023-03-06T11:02:38.738Z,100219.34
2023-03-06T11:04:47.307Z,100206.28
2023-03-06T11:07:06.498Z,100209.75
2023-03-06T11:09:23.194Z,100206.47
2023-03-06T11:11:37.079Z,100212.66
2023-03-06T11:13:43.526Z,100208.31
2023-03-06T11:15:58.664Z,100203.97
2023-03-06T11:18:04.654Z,100203.81
2023-03-06T11:20:19.468Z,100204.38
2023-03-06T11:22:24.236Z,100201.59
2023-03-06T11:24:39.067Z,100191.56
2023-03-06T11:26:48.419Z,100195.44
2023-03-06T11:29:02.835Z,100191.41
2023-03-06T11:31:11.933Z,100191.72
2023-03-06T11:33:27.009Z,100190.31
2023-03-06T11:35:35.986Z,100188.28
2023-03-06T11:37:47.324Z,100183.59
2023-03-06T11:40:02.140Z,100184.31
2023-03-06T11:42:12.410Z,100183.28
2023-03-06T11:44:24.779Z,100176.13
2023-03-06T11:46:34.439Z,100175.03
2023-03-06T11:48:44.194Z,100172.19
2023-03-06T11:50:50.372Z,100170.97
2023-03-06T11:52:56.776Z,100167.09
2023-03-06T11:55:01.804Z,100168.63
2023-03-06T11:57:14.032Z,100164.13
2023-03-06T11:59:38.526Z,100169.19
2023-03-06T12:01:50.756Z,100161.91
2023-03-06T12:04:19.246Z,100170.50
2023-03-06T12:06:35.244Z,100159.75
2023-03-06T12:08:58.715Z,100159.47
2023-03-06T12:11:13.531Z,100162.38
2023-03-06T12:13:41.329Z,100156.69
2023-03-06T12:16:00.515Z,100146.91
2023-03-06T12:18:23.755Z,100151.06
2023-03-06T12:20:41.552Z,100151.72
2023-03-06T12:23:02.523Z,100142.00
2023-03-06T12:25:31.565Z,100142.00
2023-03-06T12:27:47.106Z,100148.66
2023-03-06T12:30:16.735Z,100142.56
2023-03-06T12:32:32.117Z,100146.97
2023-03-06T12:34:48.779Z,100133.31
2023-03-06T12:37:07.979Z,100130.06
2023-03-06T12:39:19.218Z,100127.41
2023-03-06T12:41:25.918Z,100127.53
2023-03-06T12:44:06.984Z,100124.88
2023-03-06T12:46:16.449Z,100120.53
2023-03-06T12:48:24.071Z,100119.78
2023-03-06T12:50:29.351Z,100118.28
2023-03-06T12:52:35.236Z,100117.00
2023-03-06T12:54:42.034Z,100105.25
2023-03-06T12:56:45.851Z,100109.84
2023-03-06T12:58:51.632Z,100111.00
2023-03-06T13:01:05.109Z,100103.19
2023-03-06T13:03:19.777Z,100101.59
2023-03-06T13:05:52.095Z,100098.22
2023-03-06T13:08:11.662Z,100099.34
2023-03-06T13:10:24.538Z,100091.72
2023-03-06T13:12:44.343Z,100093.72
2023-03-06T13:14:59.939Z,100086.84
2023-03-06T13:17:29.736Z,100076.56
2023-03-06T13:19:33.395Z,100073.94
2023-03-06T13:22:00.557Z,100073.94
2023-03-06T13:24:15.647Z,100063.41
2023-03-06T13:26:55.852Z,100066.78
2023-03-06T13:28:59.882Z,100056.88
2023-03-06T13:31:03.501Z,100057.66
2023-03-06T13:33:40.222Z,100067.06
2023-03-06T13:36:01.289Z,100074.88
2023-03-06T13:38:05.768Z,100074.19
2023-03-06T13:40:16.742Z,100069.22
2023-03-06T13:42:27.798Z,100064.44
2023-03-06T13:44:43.460Z,100055.88
2023-03-06T13:46:58.974Z,100062.66
2023-03-06T13:49:14.835Z,100050.41
2023-03-06T13:51:28.354Z,100057.31
2023-03-06T13:54:08.472Z,100053.53
2023-03-06T13:56:28.541Z,100054.81
2023-03-06T13:58:59.372Z,100051.94
2023-03-06T14:01:37.398Z,100048.34
2023-03-06T14:04:10.480Z,100050.41
2023-03-06T14:06:47.333Z,100049.81
2023-03-06T14:08:52.681Z,100055.25
2023-03-06T14:11:03.700Z,100051.84
2023-03-06T14:13:15.870Z,100050.22
2023-03-06T14:15:23.673Z,100040.72
2023-03-06T14:17:30.874Z,100039.88
2023-03-06T14:19:39.729Z,100039.88
2023-03-06T14:21:50.921Z,100040.72
2023-03-06T14:24:03.875Z,100036.44
2023-03-06T14:26:15.456Z,100038.09
2023-03-06T14:28:26.564Z,100028.53
2023-03-06T14:30:30.211Z,100025.91
2023-03-06T14:32:34.300Z,100031.09
2023-03-06T14:34:41.597Z,100031.16
2023-03-06T14:36:47.250Z,100030.41
2023-03-06T14:38:54.130Z,100033.22
2023-03-06T14:40:59.745Z,100035.84
2023-03-06T14:43:14.526Z,100028.22
2023-03-06T14:45:20.969Z,100032.78
2023-03-06T14:47:28.702Z,100030.25
2023-03-06T14:49:32.352Z,100038.13
2023-03-06T14:51:43.072Z,100025.84
2023-03-06T14:53:49.571Z,100024.06
2023-03-06T14:55:58.302Z,100021.34
2023-03-06T14:58:07.517Z,100015.13
2023-03-06T15:00:20.093Z,100015.91
2023-03-06T15:02:28.428Z,100014.03
2023-03-06T15:04:37.453Z,100013.09
2023-03-06T15:06:43.508Z,100010.38
2023-03-06T15:08:51.826Z,100009.38
2023-03-06T15:11:00.681Z,100009.38
2023-03-06T15:13:20.345Z,100012.88
2023-03-06T15:15:31.263Z,100009.38
2023-03-06T15:17:42.238Z,100003.19
2023-03-06T15:19:46.993Z,99998.66
2023-03-06T15:21:52.558Z,100001.25
2023-03-06T15:23:58.352Z,100002.06
2023-03-06T15:26:04.936Z,99989.84
2023-03-06T15:28:27.424Z,99993.34
2023-03-06T15:30:32.803Z,99991.56
2023-03-06T15:32:42.659Z,99994.09
2023-03-06T15:34:46.806Z,99988.84
2023-03-06T15:36:54.377Z,99979.16
2023-03-06T15:38:58.760Z,99988.66
2023-03-06T15:41:03.741Z,99983.41
2023-03-06T15:43:12.278Z,99978.13
2023-03-06T15:45:20.370Z,99983.31
2023-03-06T15:47:25.294Z,99971.94
2023-03-06T15:49:29.218Z,99976.28
2023-03-06T15:51:33.677Z,99980.63
2023-03-06T15:53:37.947Z,99965.69
2023-03-06T15:55:41.588Z,99966.41
2023-03-06T15:57:51.257Z,99964.75
2023-03-06T15:59:56.452Z,99966.41
2023-03-06T16:02:03.925Z,99956.84
2023-03-06T16:04:07.739Z,99955.91
2023-03-06T16:06:19.308Z,99952.53
2023-03-06T16:08:23.569Z,99948.09
2023-03-06T16:10:29.957Z,99956.84
2023-03-06T16:12:34.594Z,99941.19
2023-03-06T16:14:38.678Z,99947.47
2023-03-06T16:16:43.738Z,99937.97
2023-03-06T16:18:48.833Z,99940.59
2023-03-06T16:20:52.702Z,99934.47
2023-03-06T16:22:57.380Z,99933.53
2023-03-06T16:25:02.602Z,99931.00
2023-03-06T16:27:07.163Z,99931.09
2023-03-06T16:29:17.227Z,99929.22
2023-03-06T16:31:20.993Z,99926.59
2023-03-06T16:33:24.721Z,99930.16
2023-03-06T16:35:30.696Z,99924.13
2023-03-06T16:37:34.540Z,99928.47
2023-03-06T16:39:38.206Z,99927.53
2023-03-06T16:41:41.998Z,99921.50
2023-03-06T16:43:46.250Z,99926.88
2023-03-06T16:45:50.162Z,99923.56
2023-03-06T16:47:54.574Z,99927.97
2023-03-06T16:50:02.076Z,99922.91
2023-03-06T16:52:08.898Z,99926.56
2023-03-06T16:54:12.492Z,99924.94
2023-03-06T16:56:17.656Z,99925.97
2023-03-06T16:58:21.009Z,99927.00
2023-03-06T17:00:29.571Z,99924.28
2023-03-06T17:02:34.128Z,99920.03
2023-03-06T17:04:38.122Z,99920.03
2023-03-06T17:06:43.329Z,99933.94
2023-03-06T17:08:50.024Z,99933.13
2023-03-06T17:10:53.863Z,99930.53
2023-03-06T17:12:57.666Z,99921.84
2023-03-06T17:15:01.880Z,99931.50
2023-03-06T17:17:06.046Z,99931.75
2023-03-06T17:19:10.528Z,99924.97
2023-03-06T17:21:16.261Z,99925.16
2023-03-06T17:23:20.495Z,99922.81
2023-03-06T17:25:25.743Z,99924.00
2023-03-06T17:27:29.844Z,99924.34
2023-03-06T17:29:33.397Z,99923.66
2023-03-06T17:31:37.485Z,99921.31
2023-03-06T17:33:41.566Z,99924.94
2023-03-06T17:35:45.673Z,99915.38
2023-03-06T17:37:50.166Z,99918.94
2023-03-06T17:39:54.348Z,99918.94
2023-03-06T17:42:00.702Z,99919.97
2023-03-06T17:44:04.934Z,99912.19
2023-03-06T17:46:12.180Z,99915.81
2023-03-06T17:48:16.174Z,99923.84
2023-03-06T17:50:23.735Z,99918.94
2023-03-06T17:52:31.760Z,99925.22
2023-03-06T17:54:38.529Z,99929.03
2023-03-06T17:56:42.179Z,99923.09
2023-03-06T17:58:48.348Z,99925.06
2023-03-06T18:00:53.195Z,99922.66
2023-03-06T18:02:58.018Z,99920.28
2023-03-06T18:05:02.736Z,99921.31
2023-03-06T18:07:07.321Z,99927.47
2023-03-06T18:09:11.120Z,99921.63
2023-03-06T18:11:17.250Z,99925.44
2023-03-06T18:13:24.223Z,99925.44
2023-03-06T18:15:33.420Z,99928.06
2023-03-06T18:17:39.382Z,99920.19
2023-03-06T18:19:43.785Z,99921.97
2023-03-06T18:21:49.115Z,99915.03
2023-03-06T18:23:54.797Z,99916.72
2023-03-06T18:26:12.047Z,99920.03
2023-03-06T18:28:17.454Z,99914.69
2023-03-06T18:30:21.310Z,99916.38
2023-03-06T18:32:26.584Z,99920.78
2023-03-06T18:34:31.337Z,99919.09
2023-03-06T18:36:38.618Z,99919.53
2023-03-06T18:38:45.408Z,99920.63
2023-03-06T18:40:50.386Z,99919.00
2023-03-06T18:42:56.778Z,99921.94
2023-03-06T18:45:00.801Z,99924.72
2023-03-06T18:47:05.709Z,99922.94
2023-03-06T18:49:12.960Z,99926.75
2023-03-06T18:51:17.586Z,99919.03
2023-03-06T18:53:22.282Z,99921.56
2023-03-06T18:55:26.692Z,99924.03
2023-03-06T18:57:30.796Z,99925.91
2023-03-06T18:59:34.808Z,99928.69
2023-03-06T19:01:38.780Z,99929.84
2023-03-06T19:03:43.083Z,99928.38
2023-03-06T19:05:51.055Z,99924.31
2023-03-06T19:07:56.660Z,99930.63
2023-03-06T19:10:05.818Z,99930.28
2023-03-06T19:12:12.590Z,99927.03
2023-03-06T19:14:24.346Z,99925.50
2023-03-06T19:16:31.978Z,99925.41
2023-03-06T19:18:38.400Z,99923.66
2023-03-06T19:20:44.031Z,99924.78
2023-03-06T19:22:53.711Z,99927.41
2023-03-06T19:24:57.963Z,99922.25
2023-03-06T19:27:02.812Z,99927.41
2023-03-06T19:29:07.527Z,99922.16
2023-03-06T19:31:15.942Z,99930.97
2023-03-06T19:33:20.468Z,99929.44
2023-03-06T19:35:30.039Z,99925.28
2023-03-06T19:37:37.382Z,99925.56
2023-03-06T19:39:45.475Z,99925.72
2023-03-06T19:41:49.996Z,99934.34
2023-03-06T19:43:57.264Z,99931.72
2023-03-06T19:46:02.656Z,99926.56
2023-03-06T19:48:11.872Z,99930.97
2023-03-06T19:50:15.949Z,99929.25
2023-03-06T19:52:25.741Z,99930.34
2023-03-06T19:54:32.480Z,99928.63
2023-03-06T19:56:38.984Z,99922.41
2023-03-06T19:58:43.378Z,99922.31
2023-03-06T20:00:47.557Z,99926.56
2023-03-06T20:03:55.364Z,99918.63
2023-03-06T20:06:23.480Z,99922.03
2023-03-06T20:08:28.463Z,99923.66
2023-03-06T20:10:37.945Z,99926.94
2023-03-06T20:12:50.255Z,99915.72
2023-03-06T20:14:57.131Z,99917.41
2023-03-06T20:17:02.918Z,99920.78
2023-03-06T20:19:09.585Z,99918.00
2023-03-06T20:21:18.719Z,99919.53
2023-03-06T20:23:26.029Z,99921.94
2023-03-06T20:25:30.993Z,99920.94
2023-03-06T20:27:35.863Z,99932.19
2023-03-06T20:29:44.883Z,99926.94
2023-03-06T20:31:48.661Z,99927.72
2023-03-06T20:33:54.554Z,99929.28
2023-03-06T20:36:02.467Z,99937.88
2023-03-06T20:38:07.145Z,99928.25
2023-03-06T20:40:13.600Z,99933.34
2023-03-06T20:42:19.149Z,99938.50
2023-03-06T20:44:25.196Z,99928.81
2023-03-06T20:46:30.613Z,99920.94
2023-03-06T20:48:35.336Z,99924.41
2023-03-06T20:50:39.452Z,99919.97
2023-03-06T20:52:44.502Z,99914.00
2023-03-06T20:54:48.766Z,99912.38
2023-03-06T20:56:58.193Z,99912.91
2023-03-06T20:59:04.748Z,99907.31
2023-03-06T21:01:09.153Z,99910.84
2023-03-06T21:03:15.289Z,99915.09
2023-03-06T21:05:19.192Z,99907.06
2023-03-06T21:07:23.580Z,99912.13
2023-03-06T21:09:28.453Z,99910.38
2023-03-06T21:11:32.443Z,99912.00
2023-03-06T21:13:39.146Z,99917.09
2023-03-06T21:15:49.103Z,99922.25
2023-03-06T21:17:54.658Z,99914.28
2023-03-06T21:20:00.873Z,99920.47
2023-03-06T21:22:06.342Z,99910.91
2023-03-06T21:24:12.313Z,99918.78
2023-03-06T21:26:18.829Z,99914.38
2023-03-06T21:28:23.846Z,99914.28
2023-03-06T21:30:27.877Z,99911.66
2023-03-06T21:32:31.741Z,99909.91
2023-03-06T21:34:35.636Z,99915.06
2023-03-06T21:36:43.128Z,99914.22
2023-03-06T21:38:47.145Z,99919.44
2023-03-06T21:40:51.120Z,99917.63
2023-03-06T21:42:57.505Z,99911.53
2023-03-06T21:45:08.577Z,99918.38
2023-03-06T21:47:17.606Z,99921.84
2023-03-06T21:49:30.054Z,99922.69
2023-03-06T21:51:36.379Z,99925.31
2023-03-06T21:53:49.438Z,99922.59
2023-03-06T21:55:56.223Z,99926.00
2023-03-06T21:58:02.573Z,99921.53
2023-03-06T22:00:20.285Z,99920.59
2023-03-06T22:02:27.085Z,99926.63
2023-03-06T22:04:31.515Z,99919.69
2023-03-06T22:06:36.618Z,99923.22
2023-03-06T22:08:40.929Z,99926.94
2023-03-06T22:10:48.460Z,99920.94
2023-03-06T22:12:55.070Z,99919.22
2023-03-06T22:14:59.345Z,99915.75
2023-03-06T22:17:03.402Z,99918.31
2023-03-06T22:19:07.833Z,99915.69
2023-03-06T22:21:17.346Z,99919.22
2023-03-06T22:23:24.029Z,99915.75
2023-03-06T22:25:28.372Z,99917.63
2023-03-06T22:27:35.279Z,99915.91
2023-03-06T22:29:39.970Z,99915.25
2023-03-06T22:31:44.335Z,99924.03
2023-03-06T22:33:48.600Z,99924.94
2023-03-06T22:35:54.864Z,99927.56
2023-03-06T22:38:02.980Z,99927.56
2023-03-06T22:40:08.458Z,99923.31
2023-03-06T22:42:12.772Z,99925.94
2023-03-06T22:44:20.824Z,99926.03
2023-03-06T22:46:25.813Z,99923.31
2023-03-06T22:48:30.331Z,99921.50
2023-03-06T22:50:35.902Z,99922.31
2023-03-06T22:52:42.520Z,99921.50
2023-03-06T22:54:46.711Z,99913.53
2023-03-06T22:56:50.708Z,99917.91
2023-03-06T22:58:54.944Z,99910.06
2023-03-06T23:01:05.812Z,99913.72
2023-03-06T23:03:09.637Z,99906.91
2023-03-06T23:05:13.349Z,99914.84
2023-03-06T23:07:17.565Z,99917.47
2023-03-06T23:09:23.415Z,99914.94
2023-03-06T23:11:45.849Z,99913.16
2023-03-06T23:14:08.263Z,99911.47
2023-03-06T23:16:32.575Z,99917.72
2023-03-06T23:18:55.052Z,99915.25
2023-03-06T23:21:19.473Z,99912.75
2023-03-06T23:23:51.096Z,99915.38
2023-03-06T23:26:04.485Z,99918.16
2023-03-06T23:28:09.884Z,99906.16
2023-03-06T23:30:17.240Z,99911.38
2023-03-06T23:32:23.130Z,99913.09
2023-03-06T23:34:27.282Z,99913.09
2023-03-06T23:36:33.057Z,99912.19
2023-03-06T23:38:37.740Z,99913.94
2023-03-06T23:40:41.987Z,99906.16
2023-03-06T23:42:45.861Z,99911.47
2023-03-06T23:44:50.218Z,99908.84
2023-03-06T23:46:54.625Z,99907.06
2023-03-06T23:49:00.395Z,99898.28
2023-03-06T23:51:07.918Z,99903.38
2023-03-06T23:53:11.754Z,99899.06
2023-03-06T23:55:16.460Z,99897.44
2023-03-06T23:57:20.321Z,99895.66
2023-03-06T23:59:25.269Z,99892.22
